sensor_id;sensor_type;location;lat;lon;timestamp;pressure;altitude;pressure_sealevel;temperature;humidity
39487;BME280;25173;50.430;18.926;2022-11-21T00:00:05;97494.16;;;5.81;60.84
39487;BME280;25173;50.430;18.926;2022-11-21T00:03:08;97484.97;;;5.82;60.96
39487;BME280;25173;50.430;18.926;2022-11-21T00:06:09;97486.59;;;5.83;60.68
39487;BME280;25173;50.430;18.926;2022-11-21T00:09:09;97473.09;;;5.83;60.88
39487;BME280;25173;50.430;18.926;2022-11-21T00:12:10;97472.28;;;5.83;60.82
39487;BME280;25173;50.430;18.926;2022-11-21T00:15:11;97465.59;;;5.91;60.92
39487;BME280;25173;50.430;18.926;2022-11-21T00:18:11;97467.50;;;5.95;60.66
39487;BME280;25173;50.430;18.926;2022-11-21T00:21:14;97466.44;;;5.96;60.81
39487;BME280;25173;50.430;18.926;2022-11-21T00:24:15;97469.97;;;5.97;60.81
39487;BME280;25173;50.430;18.926;2022-11-21T00:27:16;97467.78;;;5.94;60.66
39487;BME280;25173;50.430;18.926;2022-11-21T00:30:17;97463.91;;;5.84;60.65
39487;BME280;25173;50.430;18.926;2022-11-21T00:33:17;97461.16;;;5.79;60.83
39487;BME280;25173;50.430;18.926;2022-11-21T00:36:18;97460.09;;;5.80;60.94
39487;BME280;25173;50.430;18.926;2022-11-21T00:39:18;97460.66;;;5.82;60.99
39487;BME280;25173;50.430;18.926;2022-11-21T00:42:19;97455.50;;;5.81;60.98
39487;BME280;25173;50.430;18.926;2022-11-21T00:45:19;97449.53;;;5.79;61.04
39487;BME280;25173;50.430;18.926;2022-11-21T00:48:20;97440.38;;;5.80;61.07
39487;BME280;25173;50.430;18.926;2022-11-21T00:51:21;97437.72;;;5.85;61.17
39487;BME280;25173;50.430;18.926;2022-11-21T00:54:22;97449.31;;;5.85;60.77
39487;BME280;25173;50.430;18.926;2022-11-21T00:57:22;97442.84;;;5.86;61.26
39487;BME280;25173;50.430;18.926;2022-11-21T01:00:23;97432.09;;;5.92;61.08
39487;BME280;25173;50.430;18.926;2022-11-21T01:03:23;97432.63;;;5.94;61.02
39487;BME280;25173;50.430;18.926;2022-11-21T01:06:24;97420.75;;;5.95;61.03
39487;BME280;25173;50.430;18.926;2022-11-21T01:09:25;97415.09;;;5.96;60.98
39487;BME280;25173;50.430;18.926;2022-11-21T01:12:25;97407.78;;;5.92;60.82
39487;BME280;25173;50.430;18.926;2022-11-21T01:15:26;97404.78;;;5.88;61.05
39487;BME280;25173;50.430;18.926;2022-11-21T01:18:26;97401.81;;;5.90;61.01
39487;BME280;25173;50.430;18.926;2022-11-21T01:21:29;97397.97;;;5.85;61.14
39487;BME280;25173;50.430;18.926;2022-11-21T01:24:30;97401.50;;;5.86;60.94
39487;BME280;25173;50.430;18.926;2022-11-21T01:27:30;97401.81;;;5.90;61.13
39487;BME280;25173;50.430;18.926;2022-11-21T01:30:31;97403.47;;;5.91;61.02
39487;BME280;25173;50.430;18.926;2022-11-21T01:33:32;97404.28;;;5.96;61.08
39487;BME280;25173;50.430;18.926;2022-11-21T01:36:33;97410.25;;;5.98;61.10
39487;BME280;25173;50.430;18.926;2022-11-21T01:39:34;97403.22;;;5.97;60.99
39487;BME280;25173;50.430;18.926;2022-11-21T01:42:58;97406.72;;;5.98;60.71
39487;BME280;25173;50.430;18.926;2022-11-21T01:52:22;97415.53;;;5.78;61.19
39487;BME280;25173;50.430;18.926;2022-11-21T01:55:24;97407.41;;;5.78;61.41
39487;BME280;25173;50.430;18.926;2022-11-21T01:58:26;97407.94;;;5.80;61.39
39487;BME280;25173;50.430;18.926;2022-11-21T02:01:28;97404.19;;;5.81;61.30
39487;BME280;25173;50.430;18.926;2022-11-21T02:04:31;97398.50;;;5.77;61.30
39487;BME280;25173;50.430;18.926;2022-11-21T02:07:37;97402.28;;;5.76;61.43
39487;BME280;25173;50.430;18.926;2022-11-21T02:10:45;97398.50;;;5.77;61.45
39487;BME280;25173;50.430;18.926;2022-11-21T02:13:46;97397.97;;;5.80;61.58
39487;BME280;25173;50.430;18.926;2022-11-21T02:16:47;97399.38;;;5.88;61.33
39487;BME280;25173;50.430;18.926;2022-11-21T02:19:57;97393.16;;;5.88;61.16
39487;BME280;25173;50.430;18.926;2022-11-21T02:26:10;97388.53;;;5.83;61.11
39487;BME280;25173;50.430;18.926;2022-11-21T02:29:11;97384.44;;;5.75;60.91
39487;BME280;25173;50.430;18.926;2022-11-21T02:32:20;97364.13;;;5.63;61.02
39487;BME280;25173;50.430;18.926;2022-11-21T02:35:21;97368.31;;;5.48;60.83
39487;BME280;25173;50.430;18.926;2022-11-21T02:38:25;97365.56;;;5.33;60.95
39487;BME280;25173;50.430;18.926;2022-11-21T02:41:28;97366.78;;;5.21;61.22
39487;BME280;25173;50.430;18.926;2022-11-21T02:44:37;97366.22;;;5.14;61.22
39487;BME280;25173;50.430;18.926;2022-11-21T02:47:41;97360.75;;;5.03;61.03
39487;BME280;25173;50.430;18.926;2022-11-21T02:50:44;97364.22;;;4.99;61.08
39487;BME280;25173;50.430;18.926;2022-11-21T02:53:45;97365.75;;;4.90;60.71
39487;BME280;25173;50.430;18.926;2022-11-21T02:56:46;97373.19;;;4.78;60.68
39487;BME280;25173;50.430;18.926;2022-11-21T02:59:46;97368.53;;;4.68;61.03
39487;BME280;25173;50.430;18.926;2022-11-21T03:02:47;97353.69;;;4.65;60.97
39487;BME280;25173;50.430;18.926;2022-11-21T03:05:48;97351.50;;;4.62;61.09
39487;BME280;25173;50.430;18.926;2022-11-21T03:08:49;97359.78;;;4.56;60.98
39487;BME280;25173;50.430;18.926;2022-11-21T03:11:49;97356.50;;;4.49;61.26
39487;BME280;25173;50.430;18.926;2022-11-21T03:14:50;97358.88;;;4.45;61.30
39487;BME280;25173;50.430;18.926;2022-11-21T03:17:50;97349.97;;;4.45;61.31
39487;BME280;25173;50.430;18.926;2022-11-21T03:20:51;97347.78;;;4.42;61.32
39487;BME280;25173;50.430;18.926;2022-11-21T03:23:52;97340.78;;;4.41;61.33
39487;BME280;25173;50.430;18.926;2022-11-21T03:26:52;97337.50;;;4.39;61.46
39487;BME280;25173;50.430;18.926;2022-11-21T03:29:53;97327.72;;;4.27;61.51
39487;BME280;25173;50.430;18.926;2022-11-21T03:32:54;97324.41;;;4.20;61.68
39487;BME280;25173;50.430;18.926;2022-11-21T03:35:55;97317.63;;;4.18;61.65
39487;BME280;25173;50.430;18.926;2022-11-21T03:38:56;97324.34;;;4.15;61.75
39487;BME280;25173;50.430;18.926;2022-11-21T03:41:57;97319.72;;;4.11;62.05
39487;BME280;25173;50.430;18.926;2022-11-21T03:44:58;97321.53;;;4.05;61.97
39487;BME280;25173;50.430;18.926;2022-11-21T03:47:58;97313.97;;;4.02;61.77
39487;BME280;25173;50.430;18.926;2022-11-21T03:50:59;97301.81;;;4.00;61.76
39487;BME280;25173;50.430;18.926;2022-11-21T03:53:59;97303.00;;;3.87;61.78
39487;BME280;25173;50.430;18.926;2022-11-21T03:57:00;97300.84;;;3.84;61.98
39487;BME280;25173;50.430;18.926;2022-11-21T04:00:01;97307.28;;;3.83;62.05
39487;BME280;25173;50.430;18.926;2022-11-21T04:03:01;97305.91;;;3.80;62.03
39487;BME280;25173;50.430;18.926;2022-11-21T04:06:02;97302.16;;;3.81;61.70
39487;BME280;25173;50.430;18.926;2022-11-21T04:09:02;97280.84;;;3.80;61.60
39487;BME280;25173;50.430;18.926;2022-11-21T04:12:03;97277.09;;;3.81;61.49
39487;BME280;25173;50.430;18.926;2022-11-21T04:15:04;97265.75;;;3.79;61.41
39487;BME280;25173;50.430;18.926;2022-11-21T04:18:05;97278.13;;;3.75;61.28
39487;BME280;25173;50.430;18.926;2022-11-21T04:21:06;97264.59;;;3.70;61.46
39487;BME280;25173;50.430;18.926;2022-11-21T04:24:07;97265.59;;;3.64;61.62
39487;BME280;25173;50.430;18.926;2022-11-21T04:27:08;97262.03;;;3.58;61.78
39487;BME280;25173;50.430;18.926;2022-11-21T04:30:09;97268.75;;;3.56;61.94
39487;BME280;25173;50.430;18.926;2022-11-21T04:33:11;97272.19;;;3.51;61.76
39487;BME280;25173;50.430;18.926;2022-11-21T04:36:12;97255.41;;;3.44;61.98
39487;BME280;25173;50.430;18.926;2022-11-21T04:39:13;97250.50;;;3.41;62.15
39487;BME280;25173;50.430;18.926;2022-11-21T04:42:13;97252.13;;;3.42;62.11
39487;BME280;25173;50.430;18.926;2022-11-21T04:45:15;97250.50;;;3.41;62.07
39487;BME280;25173;50.430;18.926;2022-11-21T04:48:16;97234.63;;;3.39;62.08
39487;BME280;25173;50.430;18.926;2022-11-21T04:51:16;97234.38;;;3.41;61.77
39487;BME280;25173;50.430;18.926;2022-11-21T04:54:17;97231.13;;;3.39;61.87
39487;BME280;25173;50.430;18.926;2022-11-21T04:57:17;97240.25;;;3.38;62.09
39487;BME280;25173;50.430;18.926;2022-11-21T05:00:18;97226.25;;;3.36;62.20
39487;BME280;25173;50.430;18.926;2022-11-21T05:03:19;97214.75;;;3.40;61.97
39487;BME280;25173;50.430;18.926;2022-11-21T05:06:19;97214.78;;;3.45;62.09
39487;BME280;25173;50.430;18.926;2022-11-21T05:09:20;97212.97;;;3.51;61.99
39487;BME280;25173;50.430;18.926;2022-11-21T05:12:20;97215.41;;;3.53;62.00
39487;BME280;25173;50.430;18.926;2022-11-21T05:15:39;97215.41;;;3.53;62.18
39487;BME280;25173;50.430;18.926;2022-11-21T05:18:40;97201.69;;;3.54;62.01
39487;BME280;25173;50.430;18.926;2022-11-21T05:21:40;97202.50;;;3.55;62.20
39487;BME280;25173;50.430;18.926;2022-11-21T05:24:41;97206.28;;;3.54;62.30
39487;BME280;25173;50.430;18.926;2022-11-21T05:27:42;97207.34;;;3.53;62.20
39487;BME280;25173;50.430;18.926;2022-11-21T05:30:42;97197.34;;;3.48;62.24
39487;BME280;25173;50.430;18.926;2022-11-21T05:33:43;97196.00;;;3.50;62.20
39487;BME280;25173;50.430;18.926;2022-11-21T05:36:43;97199.25;;;3.53;62.21
39487;BME280;25173;50.430;18.926;2022-11-21T05:39:44;97204.94;;;3.56;62.17
39487;BME280;25173;50.430;18.926;2022-11-21T05:42:44;97205.50;;;3.58;61.97
39487;BME280;25173;50.430;18.926;2022-11-21T05:46:04;97209.25;;;3.57;61.99
39487;BME280;25173;50.430;18.926;2022-11-21T05:49:04;97207.94;;;3.60;61.88
39487;BME280;25173;50.430;18.926;2022-11-21T05:52:05;97216.72;;;3.50;61.56
39487;BME280;25173;50.430;18.926;2022-11-21T05:55:06;97221.00;;;3.46;62.15
39487;BME280;25173;50.430;18.926;2022-11-21T05:58:06;97218.78;;;3.43;62.12
39487;BME280;25173;50.430;18.926;2022-11-21T06:01:10;97225.44;;;3.35;62.36
39487;BME280;25173;50.430;18.926;2022-11-21T06:04:11;97232.06;;;3.28;62.27
39487;BME280;25173;50.430;18.926;2022-11-21T06:07:11;97237.38;;;3.23;62.31
39487;BME280;25173;50.430;18.926;2022-11-21T06:10:12;97232.00;;;3.23;62.67
39487;BME280;25173;50.430;18.926;2022-11-21T06:13:13;97222.63;;;3.25;62.75
39487;BME280;25173;50.430;18.926;2022-11-21T06:16:22;97227.44;;;3.23;62.80
39487;BME280;25173;50.430;18.926;2022-11-21T06:19:23;97221.25;;;3.23;63.02
39487;BME280;25173;50.430;18.926;2022-11-21T06:22:23;97221.47;;;3.21;63.28
39487;BME280;25173;50.430;18.926;2022-11-21T06:25:24;97213.41;;;3.21;63.28
39487;BME280;25173;50.430;18.926;2022-11-21T06:28:25;97217.53;;;3.29;63.42
39487;BME280;25173;50.430;18.926;2022-11-21T06:31:26;97210.28;;;3.29;63.57
39487;BME280;25173;50.430;18.926;2022-11-21T06:34:27;97211.44;;;3.33;63.81
39487;BME280;25173;50.430;18.926;2022-11-21T06:37:27;97219.56;;;3.38;63.88
39487;BME280;25173;50.430;18.926;2022-11-21T06:40:28;97206.97;;;3.44;64.08
39487;BME280;25173;50.430;18.926;2022-11-21T06:43:28;97194.97;;;3.57;63.79
39487;BME280;25173;50.430;18.926;2022-11-21T06:46:29;97204.25;;;3.66;64.08
39487;BME280;25173;50.430;18.926;2022-11-21T06:49:30;97186.81;;;3.73;63.88
39487;BME280;25173;50.430;18.926;2022-11-21T06:52:33;97180.50;;;3.89;64.01
39487;BME280;25173;50.430;18.926;2022-11-21T06:55:34;97178.81;;;4.10;63.78
39487;BME280;25173;50.430;18.926;2022-11-21T06:58:35;97188.03;;;4.19;63.44
39487;BME280;25173;50.430;18.926;2022-11-21T07:01:36;97187.59;;;4.33;63.59
39487;BME280;25173;50.430;18.926;2022-11-21T07:04:36;97190.13;;;4.44;63.40
39487;BME280;25173;50.430;18.926;2022-11-21T07:07:37;97185.59;;;4.55;63.40
39487;BME280;25173;50.430;18.926;2022-11-21T07:10:37;97188.91;;;4.67;63.19
39487;BME280;25173;50.430;18.926;2022-11-21T07:13:38;97182.53;;;4.78;63.39
39487;BME280;25173;50.430;18.926;2022-11-21T07:16:38;97189.31;;;4.86;63.23
39487;BME280;25173;50.430;18.926;2022-11-21T07:19:39;97185.06;;;4.95;63.37
39487;BME280;25173;50.430;18.926;2022-11-21T07:22:40;97181.56;;;4.99;63.25
39487;BME280;25173;50.430;18.926;2022-11-21T07:25:40;97178.66;;;5.11;63.25
39487;BME280;25173;50.430;18.926;2022-11-21T07:28:42;97189.75;;;5.20;63.33
39487;BME280;25173;50.430;18.926;2022-11-21T07:31:42;97183.88;;;5.33;63.40
39487;BME280;25173;50.430;18.926;2022-11-21T07:34:43;97179.56;;;5.42;63.08
39487;BME280;25173;50.430;18.926;2022-11-21T07:37:43;97183.38;;;5.51;62.96
39487;BME280;25173;50.430;18.926;2022-11-21T07:40:44;97186.38;;;5.55;62.89
39487;BME280;25173;50.430;18.926;2022-11-21T07:43:48;97178.28;;;5.65;62.99
39487;BME280;25173;50.430;18.926;2022-11-21T07:46:55;97179.38;;;5.79;62.79
39487;BME280;25173;50.430;18.926;2022-11-21T07:49:55;97181.56;;;5.82;62.52
39487;BME280;25173;50.430;18.926;2022-11-21T07:53:04;97174.28;;;5.82;62.62
39487;BME280;25173;50.430;18.926;2022-11-21T07:56:05;97178.06;;;5.81;62.48
39487;BME280;25173;50.430;18.926;2022-11-21T07:59:08;97175.94;;;5.89;62.45
39487;BME280;25173;50.430;18.926;2022-11-21T08:02:22;97161.91;;;5.97;62.40
39487;BME280;25173;50.430;18.926;2022-11-21T08:05:23;97161.63;;;6.03;62.42
39487;BME280;25173;50.430;18.926;2022-11-21T08:08:24;97165.94;;;6.09;62.36
39487;BME280;25173;50.430;18.926;2022-11-21T08:11:25;97159.75;;;6.14;62.39
39487;BME280;25173;50.430;18.926;2022-11-21T08:14:25;97157.56;;;6.26;62.22
39487;BME280;25173;50.430;18.926;2022-11-21T08:17:33;97163.53;;;6.33;62.22
39487;BME280;25173;50.430;18.926;2022-11-21T08:20:34;97152.72;;;6.43;62.04
39487;BME280;25173;50.430;18.926;2022-11-21T08:23:35;97148.91;;;6.49;61.88
39487;BME280;25173;50.430;18.926;2022-11-21T08:26:35;97150.50;;;6.55;61.54
39487;BME280;25173;50.430;18.926;2022-11-21T08:29:36;97159.16;;;6.52;61.53
39487;BME280;25173;50.430;18.926;2022-11-21T08:32:37;97157.28;;;6.53;61.62
39487;BME280;25173;50.430;18.926;2022-11-21T08:35:38;97148.88;;;6.54;61.46
39487;BME280;25173;50.430;18.926;2022-11-21T08:38:39;97149.97;;;6.58;61.50
39487;BME280;25173;50.430;18.926;2022-11-21T08:41:39;97153.75;;;6.57;61.39
39487;BME280;25173;50.430;18.926;2022-11-21T08:44:59;97148.88;;;6.54;61.35
39487;BME280;25173;50.430;18.926;2022-11-21T08:48:00;97151.56;;;6.59;61.41
39487;BME280;25173;50.430;18.926;2022-11-21T08:51:00;97148.88;;;6.65;61.37
39487;BME280;25173;50.430;18.926;2022-11-21T08:54:02;97144.53;;;6.69;61.28
39487;BME280;25173;50.430;18.926;2022-11-21T08:57:02;97155.88;;;6.76;61.30
39487;BME280;25173;50.430;18.926;2022-11-21T09:00:04;97154.78;;;6.87;61.49
39487;BME280;25173;50.430;18.926;2022-11-21T09:03:05;97154.19;;;7.00;60.90
39487;BME280;25173;50.430;18.926;2022-11-21T09:06:06;97149.84;;;7.04;61.21
39487;BME280;25173;50.430;18.926;2022-11-21T09:09:07;97148.22;;;7.08;61.12
39487;BME280;25173;50.430;18.926;2022-11-21T09:12:08;97145.75;;;7.12;60.80
39487;BME280;25173;50.430;18.926;2022-11-21T09:15:09;97149.84;;;7.09;60.95
39487;BME280;25173;50.430;18.926;2022-11-21T09:18:28;97143.34;;;7.05;61.08
39487;BME280;25173;50.430;18.926;2022-11-21T09:21:29;97139.00;;;7.09;61.32
39487;BME280;25173;50.430;18.926;2022-11-21T09:24:29;97135.72;;;7.12;61.32
39487;BME280;25173;50.430;18.926;2022-11-21T09:27:30;97130.31;;;7.17;60.95
39487;BME280;25173;50.430;18.926;2022-11-21T09:30:31;97120.56;;;7.16;61.19
39487;BME280;25173;50.430;18.926;2022-11-21T09:33:32;97121.66;;;7.15;61.46
39487;BME280;25173;50.430;18.926;2022-11-21T09:36:32;97113.50;;;7.25;61.80
39487;BME280;25173;50.430;18.926;2022-11-21T09:39:33;97104.22;;;7.36;61.79
39487;BME280;25173;50.430;18.926;2022-11-21T09:46:02;97102.06;;;7.77;61.95
39487;BME280;25173;50.430;18.926;2022-11-21T09:49:08;97098.13;;;7.99;61.77
39487;BME280;25173;50.430;18.926;2022-11-21T09:52:14;97093.78;;;8.27;61.60
39487;BME280;25173;50.430;18.926;2022-11-21T09:55:20;97091.16;;;8.50;61.93
39487;BME280;25173;50.430;18.926;2022-11-21T09:58:30;97080.97;;;8.66;61.12
39487;BME280;25173;50.430;18.926;2022-11-21T10:01:31;97076.38;;;8.85;61.03
39487;BME280;25173;50.430;18.926;2022-11-21T10:04:32;97097.38;;;9.04;60.82
39487;BME280;25173;50.430;18.926;2022-11-21T10:07:33;97091.88;;;9.27;60.55
39487;BME280;25173;50.430;18.926;2022-11-21T10:10:55;97106.16;;;9.57;60.44
39487;BME280;25173;50.430;18.926;2022-11-21T10:28:03;97087.16;;;10.27;58.46
39487;BME280;25173;50.430;18.926;2022-11-21T10:31:09;97094.72;;;10.30;58.58
39487;BME280;25173;50.430;18.926;2022-11-21T10:34:13;97101.09;;;10.39;57.62
39487;BME280;25173;50.430;18.926;2022-11-21T10:37:31;97088.41;;;10.48;58.38
39487;BME280;25173;50.430;18.926;2022-11-21T10:40:43;97079.94;;;10.49;58.00
39487;BME280;25173;50.430;18.926;2022-11-21T10:50:42;97069.41;;;10.89;57.14
39487;BME280;25173;50.430;18.926;2022-11-21T10:54:02;97068.28;;;10.90;57.14
39487;BME280;25173;50.430;18.926;2022-11-21T10:57:21;97071.41;;;10.97;57.50
39487;BME280;25173;50.430;18.926;2022-11-21T11:00:24;97073.63;;;10.95;57.31
39487;BME280;25173;50.430;18.926;2022-11-21T11:03:26;97074.34;;;10.87;57.34
39487;BME280;25173;50.430;18.926;2022-11-21T11:06:28;97065.66;;;10.85;57.41
39487;BME280;25173;50.430;18.926;2022-11-21T11:09:31;97060.41;;;10.75;57.36
39487;BME280;25173;50.430;18.926;2022-11-21T11:12:32;97065.13;;;10.69;57.50
39487;BME280;25173;50.430;18.926;2022-11-21T11:15:54;97058.59;;;10.70;57.61
39487;BME280;25173;50.430;18.926;2022-11-21T11:19:16;97064.84;;;10.71;57.67
39487;BME280;25173;50.430;18.926;2022-11-21T11:22:29;97078.56;;;10.66;57.58
39487;BME280;25173;50.430;18.926;2022-11-21T11:25:34;97078.25;;;10.67;57.78
39487;BME280;25173;50.430;18.926;2022-11-21T11:28:36;97083.50;;;10.64;57.66
39487;BME280;25173;50.430;18.926;2022-11-21T11:31:41;97082.38;;;10.65;57.60
39487;BME280;25173;50.430;18.926;2022-11-21T11:34:59;97076.72;;;10.61;56.97
39487;BME280;25173;50.430;18.926;2022-11-21T11:38:00;97077.81;;;10.46;57.36
39487;BME280;25173;50.430;18.926;2022-11-21T11:41:29;97065.81;;;10.34;57.70
39487;BME280;25173;50.430;18.926;2022-11-21T11:48:33;97069.59;;;10.19;57.83
39487;BME280;25173;50.430;18.926;2022-11-21T11:51:51;97075.59;;;10.16;57.91
39487;BME280;25173;50.430;18.926;2022-11-21T11:55:00;97076.88;;;10.05;57.97
39487;BME280;25173;50.430;18.926;2022-11-21T11:58:09;97074.25;;;10.00;58.03
39487;BME280;25173;50.430;18.926;2022-11-21T12:01:16;97070.19;;;9.97;58.27
39487;BME280;25173;50.430;18.926;2022-11-21T12:04:21;97081.28;;;10.01;58.16
39487;BME280;25173;50.430;18.926;2022-11-21T12:07:42;97075.34;;;9.99;57.77
39487;BME280;25173;50.430;18.926;2022-11-21T12:10:54;97083.94;;;9.87;58.02
39487;BME280;25173;50.430;18.926;2022-11-21T12:21:19;97063.84;;;10.02;58.29
39487;BME280;25173;50.430;18.926;2022-11-21T12:24:20;97066.88;;;10.19;58.27
39487;BME280;25173;50.430;18.926;2022-11-21T12:27:31;97070.44;;;10.33;57.45
39487;BME280;25173;50.430;18.926;2022-11-21T12:33:48;97066.28;;;10.22;57.66
39487;BME280;25173;50.430;18.926;2022-11-21T12:36:59;97058.22;;;10.31;57.54
39487;BME280;25173;50.430;18.926;2022-11-21T12:40:09;97056.94;;;10.28;57.36
39487;BME280;25173;50.430;18.926;2022-11-21T12:43:18;97056.28;;;10.18;57.40
39487;BME280;25173;50.430;18.926;2022-11-21T12:49:39;97054.97;;;10.15;57.40
39487;BME280;25173;50.430;18.926;2022-11-21T12:53:09;97054.44;;;10.13;57.60
39487;BME280;25173;50.430;18.926;2022-11-21T12:56:42;97055.03;;;10.10;57.78
39487;BME280;25173;50.430;18.926;2022-11-21T13:06:28;97059.53;;;10.20;57.56
39487;BME280;25173;50.430;18.926;2022-11-21T13:09:36;97065.38;;;10.27;57.64
39487;BME280;25173;50.430;18.926;2022-11-21T13:12:50;97061.69;;;10.36;57.52
39487;BME280;25173;50.430;18.926;2022-11-21T13:16:01;97067.22;;;10.45;57.38
39487;BME280;25173;50.430;18.926;2022-11-21T13:19:21;97065.41;;;10.40;57.12
39487;BME280;25173;50.430;18.926;2022-11-21T13:25:46;97070.69;;;10.18;57.47
39487;BME280;25173;50.430;18.926;2022-11-21T13:28:46;97064.28;;;10.09;57.54
39487;BME280;25173;50.430;18.926;2022-11-21T13:31:47;97061.38;;;10.05;57.65
39487;BME280;25173;50.430;18.926;2022-11-21T13:34:48;97061.88;;;10.07;57.75
39487;BME280;25173;50.430;18.926;2022-11-21T13:40:49;97059.22;;;10.02;57.65
39487;BME280;25173;50.430;18.926;2022-11-21T13:48:02;97063.38;;;10.00;57.35
39487;BME280;25173;50.430;18.926;2022-11-21T13:54:31;97066.81;;;9.87;57.78
39487;BME280;25173;50.430;18.926;2022-11-21T13:58:05;97068.81;;;9.81;57.93
39487;BME280;25173;50.430;18.926;2022-11-21T14:07:40;97070.59;;;9.72;58.37
39487;BME280;25173;50.430;18.926;2022-11-21T14:10:42;97065.75;;;9.69;58.26
39487;BME280;25173;50.430;18.926;2022-11-21T14:13:46;97071.50;;;9.67;58.21
39487;BME280;25173;50.430;18.926;2022-11-21T14:16:52;97075.00;;;9.68;58.36
39487;BME280;25173;50.430;18.926;2022-11-21T14:19:58;97068.75;;;9.67;58.40
39487;BME280;25173;50.430;18.926;2022-11-21T14:23:00;97063.34;;;9.67;58.41
39487;BME280;25173;50.430;18.926;2022-11-21T14:26:14;97070.97;;;9.65;58.42
39487;BME280;25173;50.430;18.926;2022-11-21T14:29:36;97078.59;;;9.63;58.38
39487;BME280;25173;50.430;18.926;2022-11-21T14:32:37;97079.28;;;9.55;58.55
39487;BME280;25173;50.430;18.926;2022-11-21T14:35:38;97075.53;;;9.51;58.57
39487;BME280;25173;50.430;18.926;2022-11-21T14:38:40;97074.13;;;9.54;58.73
39487;BME280;25173;50.430;18.926;2022-11-21T14:41:43;97094.25;;;9.53;58.84
39487;BME280;25173;50.430;18.926;2022-11-21T14:45:04;97084.78;;;9.50;58.92
39487;BME280;25173;50.430;18.926;2022-11-21T14:48:11;97086.19;;;9.48;58.86
39487;BME280;25173;50.430;18.926;2022-11-21T14:51:15;97085.94;;;9.44;59.02
39487;BME280;25173;50.430;18.926;2022-11-21T14:54:23;97088.16;;;9.42;59.09
39487;BME280;25173;50.430;18.926;2022-11-21T14:57:27;97090.94;;;9.37;59.15
39487;BME280;25173;50.430;18.926;2022-11-21T15:00:29;97096.91;;;9.39;59.22
39487;BME280;25173;50.430;18.926;2022-11-21T15:03:30;97104.00;;;9.35;59.23
39487;BME280;25173;50.430;18.926;2022-11-21T15:06:39;97099.53;;;9.25;59.49
39487;BME280;25173;50.430;18.926;2022-11-21T15:09:40;97099.84;;;9.19;59.97
39487;BME280;25173;50.430;18.926;2022-11-21T15:15:48;97108.88;;;9.14;60.32
39487;BME280;25173;50.430;18.926;2022-11-21T15:18:51;97101.63;;;9.10;60.45
39487;BME280;25173;50.430;18.926;2022-11-21T15:21:54;97102.44;;;9.10;60.58
39487;BME280;25173;50.430;18.926;2022-11-21T15:25:26;97102.72;;;9.09;60.93
39487;BME280;25173;50.430;18.926;2022-11-21T15:28:29;97101.91;;;9.08;60.80
39487;BME280;25173;50.430;18.926;2022-11-21T15:31:29;97102.47;;;9.05;60.96
39487;BME280;25173;50.430;18.926;2022-11-21T15:34:30;97104.38;;;9.05;61.11
39487;BME280;25173;50.430;18.926;2022-11-21T15:37:32;97105.25;;;9.00;61.12
39487;BME280;25173;50.430;18.926;2022-11-21T15:40:33;97101.28;;;8.92;61.19
39487;BME280;25173;50.430;18.926;2022-11-21T15:46:40;97103.72;;;8.94;61.56
39487;BME280;25173;50.430;18.926;2022-11-21T15:49:45;97098.28;;;8.94;61.50
39487;BME280;25173;50.430;18.926;2022-11-21T15:52:49;97101.28;;;8.92;61.76
39487;BME280;25173;50.430;18.926;2022-11-21T15:55:50;97106.50;;;8.89;61.78
39487;BME280;25173;50.430;18.926;2022-11-21T15:58:52;97097.53;;;8.88;61.98
39487;BME280;25173;50.430;18.926;2022-11-21T16:01:52;97093.19;;;8.87;62.21
39487;BME280;25173;50.430;18.926;2022-11-21T16:04:53;97095.03;;;8.92;62.00
39487;BME280;25173;50.430;18.926;2022-11-21T16:07:54;97103.94;;;8.98;62.00
39487;BME280;25173;50.430;18.926;2022-11-21T16:10:54;97099.56;;;9.02;61.93
39487;BME280;25173;50.430;18.926;2022-11-21T16:13:57;97094.13;;;9.02;61.82
39487;BME280;25173;50.430;18.926;2022-11-21T16:16:58;97095.75;;;9.03;61.88
39487;BME280;25173;50.430;18.926;2022-11-21T16:19:58;97097.56;;;9.07;61.77
39487;BME280;25173;50.430;18.926;2022-11-21T16:22:59;97104.56;;;9.13;61.76
39487;BME280;25173;50.430;18.926;2022-11-21T16:26:00;97095.59;;;9.13;61.72
39487;BME280;25173;50.430;18.926;2022-11-21T16:29:01;97101.03;;;9.13;61.67
39487;BME280;25173;50.430;18.926;2022-11-21T16:32:05;97105.16;;;9.10;61.67
39487;BME280;25173;50.430;18.926;2022-11-21T16:35:05;97105.72;;;9.07;61.73
39487;BME280;25173;50.430;18.926;2022-11-21T16:38:10;97106.81;;;9.06;61.98
39487;BME280;25173;50.430;18.926;2022-11-21T16:41:11;97106.59;;;9.03;61.94
39487;BME280;25173;50.430;18.926;2022-11-21T16:44:13;97105.78;;;9.02;62.10
39487;BME280;25173;50.430;18.926;2022-11-21T16:47:14;97101.97;;;9.03;62.16
39487;BME280;25173;50.430;18.926;2022-11-21T16:50:15;97104.09;;;9.06;62.04
39487;BME280;25173;50.430;18.926;2022-11-21T16:53:15;97098.16;;;9.04;62.25
39487;BME280;25173;50.430;18.926;2022-11-21T16:56:16;97103.94;;;8.98;62.31
39487;BME280;25173;50.430;18.926;2022-11-21T16:59:16;97096.41;;;8.89;62.51
39487;BME280;25173;50.430;18.926;2022-11-21T17:02:17;97098.22;;;8.75;62.88
39487;BME280;25173;50.430;18.926;2022-11-21T17:05:18;97114.00;;;8.73;63.07
39487;BME280;25173;50.430;18.926;2022-11-21T17:08:19;97105.06;;;8.68;63.18
39487;BME280;25173;50.430;18.926;2022-11-21T17:11:25;97113.47;;;8.71;63.21
39487;BME280;25173;50.430;18.926;2022-11-21T17:14:27;97108.03;;;8.71;63.24
39487;BME280;25173;50.430;18.926;2022-11-21T17:17:28;97105.06;;;8.68;63.33
39487;BME280;25173;50.430;18.926;2022-11-21T17:20:28;97102.09;;;8.69;63.51
39487;BME280;25173;50.430;18.926;2022-11-21T17:23:30;97111.28;;;8.73;63.43
39487;BME280;25173;50.430;18.926;2022-11-21T17:26:34;97106.31;;;8.80;63.44
39487;BME280;25173;50.430;18.926;2022-11-21T17:29:35;97110.59;;;8.86;63.31
39487;BME280;25173;50.430;18.926;2022-11-21T17:32:36;97100.25;;;8.88;63.20